Maryville, TN (37804)

1:32 PM EDT on October 02, 2014 (GMT -0400)
Maryville | Change Station
CLOSE
Current Station
Personal Weather Station
Location: Maryville, TN
Elevation: 962 ft
Nearby Weather Stations

Elev 962 ft 35.74 °N, 83.97 °W | Updated 26 seconds ago

Partly Cloudy
Partly Cloudy
82.6 °F
Feels Like 82 °F
N
0.0
Wind Variable Wind from NNE
Gusts 0.0 mph

Today
High -- | Low -- °F
--% Chance of Precip.
Yesterday
High -- | Low -- °F
Precip. -- in
7:31 AM 7:18 PM
First Quarter, 60% visible
Pressure 30.06 in
Visibility 10.0 miles
Clouds Few 3800 ft
Heat Index 82 °F
Dew Point 55 °F
Humidity 39%
Rainfall 0.00 in
Snow Depth Not available.
UV 7 out of 12
Pollen 5.00 out of 12
Ozone Good
Flu Activity Not available.
METAR KTYS 021653Z 29006KT 10SM FEW038 27/16 A3009 RMK AO2 SLP178 T02670156

More Conditions Fewer Conditions

Pressure 30.06 in
Visibility 10.0 miles
Clouds Few 3800 ft
Heat Index 82 °F
Dew Point 55 °F
Humidity 39%
Rainfall 0.00 in
Snow Depth Not available.
UV 7 out of 12
Pollen 5.00 out of 12
Ozone Good
Flu Activity Not available.
METAR KTYS 021653Z 29006KT 10SM FEW038 27/16 A3009 RMK AO2 SLP178 T02670156

More Conditions Fewer Conditions

10-Day Weather Forecast

Almanac

Astronomy

Oct. 02, 2014 Rise Set
Actual Time 7:31 AM EDT 7:18 PM EDT
Civil Twilight 7:06 AM EDT 7:43 PM EDT
Nautical Twilight 6:36 AM EDT 8:13 PM EDT
Astronomical Twilight 6:06 AM EDT 8:42 PM EDT
Moon 3:13 PM EDT 12:58 AM EDT
Length of Visible Light 12h 37m
Length of Day
11h 46m
Tomorrow will be 2m 14s shorter.
First Quarter, 60% of the Moon is Illuminated
Today
First Quarter
Oct 8
Full
Oct 15
Last Quarter
Oct 23
New
Oct 30
First Quarter

Today's Extremes

State Highs State Lows

Community

WunderPhotos

Upload Photos

1,758,305 photos uploaded!

Nearby

Air Quality

  Air Quality AQ Index Pollutant
Yesterday Moderate
PM2.5
Yesterday Good
OZONE
Current Good
OZONE
Thursday Moderate
PM2.5
Thursday Good
OZONE

Snow Depth

Station Depth Elevation
No new snow has been reported.

Earthquake Activity

City Distance Mag. Time & Date
No recent earthquake activity has been reported nearby.
Minimum magnitude displayed is 2.5.

Coastal Water Temperatures

Place Temperature
No Stations Reporting

Nearby Weather Stations